sensor_id;sensor_type;location;lat;lon;timestamp;P1;durP1;ratioP1;P2;durP2;ratioP2
11986;SDS011;6053;51.382;6.768;2022-09-09T00:01:23;0.60;;;0.60;;
11986;SDS011;6053;51.382;6.768;2022-09-09T00:04:03;0.60;;;0.60;;
11986;SDS011;6053;51.382;6.768;2022-09-09T00:06:43;1.00;;;0.70;;
11986;SDS011;6053;51.382;6.768;2022-09-09T00:09:15;0.67;;;0.67;;
11986;SDS011;6053;51.382;6.768;2022-09-09T00:11:46;0.88;;;0.68;;
11986;SDS011;6053;51.382;6.768;2022-09-09T00:14:21;0.90;;;0.82;;
11986;SDS011;6053;51.382;6.768;2022-09-09T00:17:01;0.70;;;0.70;;
11986;SDS011;6053;51.382;6.768;2022-09-09T00:19:37;0.75;;;0.75;;
11986;SDS011;6053;51.382;6.768;2022-09-09T00:22:15;0.90;;;0.90;;
11986;SDS011;6053;51.382;6.768;2022-09-09T00:24:46;1.33;;;0.80;;
11986;SDS011;6053;51.382;6.768;2022-09-09T00:27:22;0.90;;;0.80;;
11986;SDS011;6053;51.382;6.768;2022-09-09T00:29:56;0.77;;;0.77;;
11986;SDS011;6053;51.382;6.768;2022-09-09T00:32:30;1.10;;;1.00;;
11986;SDS011;6053;51.382;6.768;2022-09-09T00:35:03;0.98;;;0.90;;
11986;SDS011;6053;51.382;6.768;2022-09-09T00:37:42;1.15;;;0.60;;
11986;SDS011;6053;51.382;6.768;2022-09-09T00:40:16;0.82;;;0.82;;
11986;SDS011;6053;51.382;6.768;2022-09-09T00:42:51;1.10;;;0.90;;
11986;SDS011;6053;51.382;6.768;2022-09-09T00:45:37;1.60;;;0.90;;
11986;SDS011;6053;51.382;6.768;2022-09-09T00:48:27;1.40;;;0.90;;
11986;SDS011;6053;51.382;6.768;2022-09-09T00:51:08;1.00;;;0.63;;
11986;SDS011;6053;51.382;6.768;2022-09-09T00:53:52;0.82;;;0.82;;
11986;SDS011;6053;51.382;6.768;2022-09-09T00:56:34;1.05;;;1.00;;
11986;SDS011;6053;51.382;6.768;2022-09-09T00:59:13;0.70;;;0.70;;
11986;SDS011;6053;51.382;6.768;2022-09-09T01:01:53;1.10;;;0.90;;
11986;SDS011;6053;51.382;6.768;2022-09-09T01:04:26;1.30;;;0.95;;
11986;SDS011;6053;51.382;6.768;2022-09-09T01:07:02;0.90;;;0.90;;
11986;SDS011;6053;51.382;6.768;2022-09-09T01:09:42;0.73;;;0.73;;
11986;SDS011;6053;51.382;6.768;2022-09-09T01:12:23;1.00;;;1.00;;
11986;SDS011;6053;51.382;6.768;2022-09-09T01:14:56;0.80;;;0.80;;
11986;SDS011;6053;51.382;6.768;2022-09-09T01:17:31;0.90;;;0.90;;
11986;SDS011;6053;51.382;6.768;2022-09-09T01:20:06;0.70;;;0.70;;
11986;SDS011;6053;51.382;6.768;2022-09-09T01:22:44;1.05;;;1.00;;
11986;SDS011;6053;51.382;6.768;2022-09-09T01:25:27;0.70;;;0.70;;
11986;SDS011;6053;51.382;6.768;2022-09-09T01:28:00;0.90;;;0.90;;
11986;SDS011;6053;51.382;6.768;2022-09-09T01:30:32;0.70;;;0.70;;
11986;SDS011;6053;51.382;6.768;2022-09-09T01:33:03;0.68;;;0.68;;
11986;SDS011;6053;51.382;6.768;2022-09-09T01:35:47;0.90;;;0.90;;
11986;SDS011;6053;51.382;6.768;2022-09-09T01:38:20;0.77;;;0.73;;
11986;SDS011;6053;51.382;6.768;2022-09-09T01:40:51;0.80;;;0.80;;
11986;SDS011;6053;51.382;6.768;2022-09-09T01:43:22;0.73;;;0.73;;
11986;SDS011;6053;51.382;6.768;2022-09-09T01:45:53;0.77;;;0.77;;
11986;SDS011;6053;51.382;6.768;2022-09-09T01:48:23;0.70;;;0.70;;
11986;SDS011;6053;51.382;6.768;2022-09-09T01:50:52;0.70;;;0.70;;
11986;SDS011;6053;51.382;6.768;2022-09-09T01:53:21;1.63;;;1.00;;
11986;SDS011;6053;51.382;6.768;2022-09-09T01:55:53;0.80;;;0.80;;
11986;SDS011;6053;51.382;6.768;2022-09-09T01:58:33;0.80;;;0.80;;
11986;SDS011;6053;51.382;6.768;2022-09-09T02:01:15;1.00;;;0.95;;
11986;SDS011;6053;51.382;6.768;2022-09-09T02:03:56;0.90;;;0.90;;
11986;SDS011;6053;51.382;6.768;2022-09-09T02:06:27;1.70;;;0.90;;
11986;SDS011;6053;51.382;6.768;2022-09-09T02:09:00;0.73;;;0.73;;
11986;SDS011;6053;51.382;6.768;2022-09-09T02:11:31;0.90;;;0.80;;
11986;SDS011;6053;51.382;6.768;2022-09-09T02:14:03;1.03;;;0.93;;
11986;SDS011;6053;51.382;6.768;2022-09-09T02:16:37;0.82;;;0.82;;
11986;SDS011;6053;51.382;6.768;2022-09-09T02:19:11;1.10;;;1.00;;
11986;SDS011;6053;51.382;6.768;2022-09-09T02:21:43;2.13;;;1.20;;
11986;SDS011;6053;51.382;6.768;2022-09-09T02:24:13;1.00;;;0.95;;
11986;SDS011;6053;51.382;6.768;2022-09-09T02:26:43;0.90;;;0.90;;
11986;SDS011;6053;51.382;6.768;2022-09-09T02:29:17;0.90;;;0.90;;
11986;SDS011;6053;51.382;6.768;2022-09-09T02:31:50;1.40;;;0.80;;
11986;SDS011;6053;51.382;6.768;2022-09-09T02:34:22;1.00;;;1.00;;
11986;SDS011;6053;51.382;6.768;2022-09-09T02:36:54;0.60;;;0.60;;
11986;SDS011;6053;51.382;6.768;2022-09-09T02:39:24;1.50;;;0.95;;
11986;SDS011;6053;51.382;6.768;2022-09-09T02:41:53;1.00;;;1.00;;
11986;SDS011;6053;51.382;6.768;2022-09-09T02:44:24;0.83;;;0.83;;
11986;SDS011;6053;51.382;6.768;2022-09-09T02:47:03;0.95;;;0.95;;
11986;SDS011;6053;51.382;6.768;2022-09-09T02:49:48;1.30;;;1.20;;
11986;SDS011;6053;51.382;6.768;2022-09-09T02:52:26;1.27;;;1.17;;
11986;SDS011;6053;51.382;6.768;2022-09-09T02:55:03;1.10;;;1.10;;
11986;SDS011;6053;51.382;6.768;2022-09-09T02:57:37;1.30;;;1.20;;
11986;SDS011;6053;51.382;6.768;2022-09-09T03:00:11;1.00;;;1.00;;
11986;SDS011;6053;51.382;6.768;2022-09-09T03:02:40;1.00;;;1.00;;
11986;SDS011;6053;51.382;6.768;2022-09-09T03:05:09;1.52;;;1.42;;
11986;SDS011;6053;51.382;6.768;2022-09-09T03:07:39;1.25;;;1.15;;
11986;SDS011;6053;51.382;6.768;2022-09-09T03:10:08;1.50;;;1.40;;
11986;SDS011;6053;51.382;6.768;2022-09-09T03:12:36;1.23;;;1.13;;
11986;SDS011;6053;51.382;6.768;2022-09-09T03:15:06;1.15;;;1.00;;
11986;SDS011;6053;51.382;6.768;2022-09-09T03:17:37;0.80;;;0.80;;
11986;SDS011;6053;51.382;6.768;2022-09-09T03:20:06;1.23;;;1.23;;
11986;SDS011;6053;51.382;6.768;2022-09-09T03:22:35;1.13;;;1.07;;
11986;SDS011;6053;51.382;6.768;2022-09-09T03:25:04;3.00;;;1.10;;
11986;SDS011;6053;51.382;6.768;2022-09-09T03:27:33;1.30;;;1.20;;
11986;SDS011;6053;51.382;6.768;2022-09-09T03:30:02;1.48;;;1.33;;
11986;SDS011;6053;51.382;6.768;2022-09-09T03:32:32;1.40;;;1.30;;
11986;SDS011;6053;51.382;6.768;2022-09-09T03:35:02;1.23;;;1.20;;
11986;SDS011;6053;51.382;6.768;2022-09-09T03:37:30;1.27;;;1.17;;
11986;SDS011;6053;51.382;6.768;2022-09-09T03:39:59;2.03;;;1.20;;
11986;SDS011;6053;51.382;6.768;2022-09-09T03:42:28;1.00;;;1.00;;
11986;SDS011;6053;51.382;6.768;2022-09-09T03:44:58;1.00;;;1.00;;
11986;SDS011;6053;51.382;6.768;2022-09-09T03:47:26;1.17;;;1.07;;
11986;SDS011;6053;51.382;6.768;2022-09-09T03:49:55;1.23;;;1.20;;
11986;SDS011;6053;51.382;6.768;2022-09-09T03:52:25;1.03;;;1.03;;
11986;SDS011;6053;51.382;6.768;2022-09-09T03:54:53;1.10;;;1.02;;
11986;SDS011;6053;51.382;6.768;2022-09-09T03:57:22;1.42;;;1.20;;
11986;SDS011;6053;51.382;6.768;2022-09-09T03:59:51;1.10;;;1.07;;
11986;SDS011;6053;51.382;6.768;2022-09-09T04:02:19;0.93;;;0.90;;
11986;SDS011;6053;51.382;6.768;2022-09-09T04:04:47;0.95;;;0.95;;
11986;SDS011;6053;51.382;6.768;2022-09-09T04:07:16;1.23;;;1.23;;
11986;SDS011;6053;51.382;6.768;2022-09-09T04:09:45;1.20;;;1.20;;
11986;SDS011;6053;51.382;6.768;2022-09-09T04:12:14;1.45;;;1.30;;
11986;SDS011;6053;51.382;6.768;2022-09-09T04:14:42;1.30;;;1.20;;
11986;SDS011;6053;51.382;6.768;2022-09-09T04:17:11;1.07;;;1.07;;
11986;SDS011;6053;51.382;6.768;2022-09-09T04:19:39;1.17;;;1.08;;
11986;SDS011;6053;51.382;6.768;2022-09-09T04:22:08;1.05;;;1.05;;
11986;SDS011;6053;51.382;6.768;2022-09-09T04:24:36;1.65;;;1.10;;
11986;SDS011;6053;51.382;6.768;2022-09-09T04:27:06;0.82;;;0.82;;
11986;SDS011;6053;51.382;6.768;2022-09-09T04:29:34;1.02;;;1.02;;
11986;SDS011;6053;51.382;6.768;2022-09-09T04:32:02;2.03;;;1.27;;
11986;SDS011;6053;51.382;6.768;2022-09-09T04:34:31;1.15;;;1.10;;
11986;SDS011;6053;51.382;6.768;2022-09-09T04:36:59;1.73;;;1.20;;
11986;SDS011;6053;51.382;6.768;2022-09-09T04:39:28;1.67;;;1.40;;
11986;SDS011;6053;51.382;6.768;2022-09-09T04:41:56;1.40;;;1.27;;
11986;SDS011;6053;51.382;6.768;2022-09-09T04:44:25;1.70;;;1.02;;
11986;SDS011;6053;51.382;6.768;2022-09-09T04:46:54;2.00;;;1.30;;
11986;SDS011;6053;51.382;6.768;2022-09-09T04:49:22;2.40;;;1.52;;
11986;SDS011;6053;51.382;6.768;2022-09-09T04:51:50;1.23;;;1.20;;
11986;SDS011;6053;51.382;6.768;2022-09-09T04:54:19;1.48;;;1.30;;
11986;SDS011;6053;51.382;6.768;2022-09-09T04:56:47;1.55;;;1.42;;
11986;SDS011;6053;51.382;6.768;2022-09-09T04:59:17;2.42;;;1.63;;
11986;SDS011;6053;51.382;6.768;2022-09-09T05:01:47;3.35;;;1.63;;
11986;SDS011;6053;51.382;6.768;2022-09-09T05:04:16;1.30;;;1.20;;
11986;SDS011;6053;51.382;6.768;2022-09-09T05:06:45;1.40;;;1.30;;
11986;SDS011;6053;51.382;6.768;2022-09-09T05:09:14;1.63;;;1.47;;
11986;SDS011;6053;51.382;6.768;2022-09-09T05:11:42;1.80;;;1.40;;
11986;SDS011;6053;51.382;6.768;2022-09-09T05:14:11;2.38;;;1.55;;
11986;SDS011;6053;51.382;6.768;2022-09-09T05:16:39;1.20;;;1.20;;
11986;SDS011;6053;51.382;6.768;2022-09-09T05:19:09;3.35;;;1.52;;
11986;SDS011;6053;51.382;6.768;2022-09-09T05:21:37;2.93;;;1.50;;
11986;SDS011;6053;51.382;6.768;2022-09-09T05:24:07;1.70;;;1.30;;
11986;SDS011;6053;51.382;6.768;2022-09-09T05:26:36;2.07;;;1.40;;
11986;SDS011;6053;51.382;6.768;2022-09-09T05:29:04;2.40;;;1.48;;
11986;SDS011;6053;51.382;6.768;2022-09-09T05:31:32;1.40;;;1.30;;
11986;SDS011;6053;51.382;6.768;2022-09-09T05:34:01;3.37;;;1.40;;
11986;SDS011;6053;51.382;6.768;2022-09-09T05:36:31;2.60;;;1.63;;
11986;SDS011;6053;51.382;6.768;2022-09-09T05:38:59;2.30;;;1.60;;
11986;SDS011;6053;51.382;6.768;2022-09-09T05:41:27;1.23;;;1.17;;
11986;SDS011;6053;51.382;6.768;2022-09-09T05:43:56;1.65;;;1.55;;
11986;SDS011;6053;51.382;6.768;2022-09-09T05:46:27;2.92;;;1.70;;
11986;SDS011;6053;51.382;6.768;2022-09-09T05:48:55;1.45;;;1.33;;
11986;SDS011;6053;51.382;6.768;2022-09-09T05:51:24;2.28;;;1.52;;
11986;SDS011;6053;51.382;6.768;2022-09-09T05:53:58;2.10;;;1.20;;
11986;SDS011;6053;51.382;6.768;2022-09-09T05:56:26;1.73;;;1.63;;
11986;SDS011;6053;51.382;6.768;2022-09-09T05:58:56;3.30;;;1.40;;
11986;SDS011;6053;51.382;6.768;2022-09-09T06:01:27;1.67;;;1.33;;
11986;SDS011;6053;51.382;6.768;2022-09-09T06:03:58;2.43;;;1.40;;
11986;SDS011;6053;51.382;6.768;2022-09-09T06:06:29;1.65;;;1.52;;
11986;SDS011;6053;51.382;6.768;2022-09-09T06:09:05;1.48;;;1.23;;
11986;SDS011;6053;51.382;6.768;2022-09-09T06:11:36;1.63;;;1.35;;
11986;SDS011;6053;51.382;6.768;2022-09-09T06:14:06;1.73;;;1.58;;
11986;SDS011;6053;51.382;6.768;2022-09-09T06:16:35;2.70;;;1.50;;
11986;SDS011;6053;51.382;6.768;2022-09-09T06:19:04;2.97;;;1.70;;
11986;SDS011;6053;51.382;6.768;2022-09-09T06:21:33;3.13;;;1.17;;
11986;SDS011;6053;51.382;6.768;2022-09-09T06:24:05;1.77;;;1.60;;
11986;SDS011;6053;51.382;6.768;2022-09-09T06:26:35;2.60;;;1.85;;
11986;SDS011;6053;51.382;6.768;2022-09-09T06:29:06;2.05;;;1.50;;
11986;SDS011;6053;51.382;6.768;2022-09-09T06:31:36;2.70;;;1.70;;
11986;SDS011;6053;51.382;6.768;2022-09-09T06:34:05;2.53;;;1.67;;
11986;SDS011;6053;51.382;6.768;2022-09-09T06:36:36;2.90;;;1.50;;
11986;SDS011;6053;51.382;6.768;2022-09-09T06:39:07;3.13;;;1.53;;
11986;SDS011;6053;51.382;6.768;2022-09-09T06:41:40;2.50;;;1.50;;
11986;SDS011;6053;51.382;6.768;2022-09-09T06:44:09;2.22;;;1.70;;
11986;SDS011;6053;51.382;6.768;2022-09-09T06:46:39;1.55;;;1.35;;
11986;SDS011;6053;51.382;6.768;2022-09-09T06:49:07;3.13;;;1.50;;
11986;SDS011;6053;51.382;6.768;2022-09-09T06:51:36;1.67;;;1.35;;
11986;SDS011;6053;51.382;6.768;2022-09-09T06:54:11;4.57;;;1.57;;
11986;SDS011;6053;51.382;6.768;2022-09-09T06:56:40;1.60;;;1.50;;
11986;SDS011;6053;51.382;6.768;2022-09-09T06:59:10;2.35;;;1.60;;
11986;SDS011;6053;51.382;6.768;2022-09-09T07:01:39;3.97;;;1.65;;
11986;SDS011;6053;51.382;6.768;2022-09-09T07:04:10;2.92;;;1.70;;
11986;SDS011;6053;51.382;6.768;2022-09-09T07:06:42;3.70;;;1.58;;
11986;SDS011;6053;51.382;6.768;2022-09-09T07:09:14;2.55;;;1.60;;
11986;SDS011;6053;51.382;6.768;2022-09-09T07:11:44;3.10;;;1.48;;
11986;SDS011;6053;51.382;6.768;2022-09-09T07:14:15;3.83;;;1.70;;
11986;SDS011;6053;51.382;6.768;2022-09-09T07:16:43;2.75;;;1.70;;
11986;SDS011;6053;51.382;6.768;2022-09-09T07:19:13;2.47;;;1.57;;
11986;SDS011;6053;51.382;6.768;2022-09-09T07:21:41;2.47;;;1.42;;
11986;SDS011;6053;51.382;6.768;2022-09-09T07:24:11;2.45;;;1.77;;
11986;SDS011;6053;51.382;6.768;2022-09-09T07:26:41;3.70;;;1.70;;
11986;SDS011;6053;51.382;6.768;2022-09-09T07:29:11;2.40;;;1.42;;
11986;SDS011;6053;51.382;6.768;2022-09-09T07:31:45;1.73;;;1.48;;
11986;SDS011;6053;51.382;6.768;2022-09-09T07:34:14;1.77;;;1.30;;
11986;SDS011;6053;51.382;6.768;2022-09-09T07:36:43;3.55;;;1.70;;
11986;SDS011;6053;51.382;6.768;2022-09-09T07:39:14;2.75;;;1.45;;
11986;SDS011;6053;51.382;6.768;2022-09-09T07:41:44;2.42;;;1.30;;
11986;SDS011;6053;51.382;6.768;2022-09-09T07:44:14;1.33;;;1.23;;
11986;SDS011;6053;51.382;6.768;2022-09-09T07:46:44;3.27;;;1.37;;
11986;SDS011;6053;51.382;6.768;2022-09-09T07:49:14;3.60;;;1.30;;
11986;SDS011;6053;51.382;6.768;2022-09-09T07:51:51;1.30;;;1.20;;
11986;SDS011;6053;51.382;6.768;2022-09-09T07:54:21;2.13;;;1.20;;
11986;SDS011;6053;51.382;6.768;2022-09-09T07:56:50;2.75;;;1.60;;
11986;SDS011;6053;51.382;6.768;2022-09-09T07:59:19;2.60;;;1.50;;
11986;SDS011;6053;51.382;6.768;2022-09-09T08:01:47;2.43;;;1.03;;
11986;SDS011;6053;51.382;6.768;2022-09-09T08:04:22;1.60;;;1.02;;
11986;SDS011;6053;51.382;6.768;2022-09-09T08:06:52;4.65;;;1.45;;
11986;SDS011;6053;51.382;6.768;2022-09-09T08:09:25;1.98;;;1.40;;
11986;SDS011;6053;51.382;6.768;2022-09-09T08:11:56;2.13;;;1.40;;
11986;SDS011;6053;51.382;6.768;2022-09-09T08:14:24;2.58;;;1.42;;
11986;SDS011;6053;51.382;6.768;2022-09-09T08:16:53;2.63;;;1.20;;
11986;SDS011;6053;51.382;6.768;2022-09-09T08:19:22;2.47;;;1.50;;
11986;SDS011;6053;51.382;6.768;2022-09-09T08:21:50;1.75;;;1.10;;
11986;SDS011;6053;51.382;6.768;2022-09-09T08:24:20;1.67;;;1.23;;
11986;SDS011;6053;51.382;6.768;2022-09-09T08:26:50;1.77;;;1.15;;
11986;SDS011;6053;51.382;6.768;2022-09-09T08:29:19;1.75;;;1.20;;
11986;SDS011;6053;51.382;6.768;2022-09-09T08:31:49;1.87;;;1.10;;
11986;SDS011;6053;51.382;6.768;2022-09-09T08:34:20;1.75;;;1.13;;
11986;SDS011;6053;51.382;6.768;2022-09-09T08:36:50;1.90;;;0.95;;
11986;SDS011;6053;51.382;6.768;2022-09-09T08:39:20;1.25;;;1.00;;
11986;SDS011;6053;51.382;6.768;2022-09-09T08:44:59;2.20;;;1.08;;
11986;SDS011;6053;51.382;6.768;2022-09-09T08:47:44;1.33;;;1.00;;
11986;SDS011;6053;51.382;6.768;2022-09-09T08:50:22;3.67;;;1.20;;
11986;SDS011;6053;51.382;6.768;2022-09-09T08:52:55;1.77;;;1.08;;
11986;SDS011;6053;51.382;6.768;2022-09-09T08:55:35;2.43;;;1.00;;
11986;SDS011;6053;51.382;6.768;2022-09-09T08:58:12;4.07;;;1.02;;
11986;SDS011;6053;51.382;6.768;2022-09-09T09:00:46;1.30;;;0.90;;
11986;SDS011;6053;51.382;6.768;2022-09-09T09:03:43;2.30;;;1.30;;
11986;SDS011;6053;51.382;6.768;2022-09-09T09:06:27;2.45;;;1.05;;
11986;SDS011;6053;51.382;6.768;2022-09-09T09:09:11;1.30;;;0.90;;
11986;SDS011;6053;51.382;6.768;2022-09-09T09:11:49;1.85;;;1.10;;
11986;SDS011;6053;51.382;6.768;2022-09-09T09:14:23;1.13;;;0.70;;
11986;SDS011;6053;51.382;6.768;2022-09-09T09:16:53;2.47;;;1.00;;
11986;SDS011;6053;51.382;6.768;2022-09-09T09:19:25;2.35;;;1.10;;
11986;SDS011;6053;51.382;6.768;2022-09-09T09:21:57;1.45;;;1.00;;
11986;SDS011;6053;51.382;6.768;2022-09-09T09:24:34;2.10;;;1.00;;
11986;SDS011;6053;51.382;6.768;2022-09-09T09:27:13;1.50;;;1.00;;
11986;SDS011;6053;51.382;6.768;2022-09-09T09:29:48;1.30;;;0.75;;
11986;SDS011;6053;51.382;6.768;2022-09-09T09:32:38;1.55;;;1.10;;
11986;SDS011;6053;51.382;6.768;2022-09-09T09:35:11;0.60;;;0.60;;
11986;SDS011;6053;51.382;6.768;2022-09-09T09:37:40;1.70;;;0.75;;
11986;SDS011;6053;51.382;6.768;2022-09-09T09:40:30;0.90;;;0.70;;
11986;SDS011;6053;51.382;6.768;2022-09-09T09:43:00;0.75;;;0.70;;
11986;SDS011;6053;51.382;6.768;2022-09-09T09:45:40;0.50;;;0.50;;
11986;SDS011;6053;51.382;6.768;2022-09-09T09:48:31;2.65;;;1.05;;
11986;SDS011;6053;51.382;6.768;2022-09-09T09:51:00;1.20;;;0.43;;
11986;SDS011;6053;51.382;6.768;2022-09-09T09:53:35;1.70;;;0.90;;
11986;SDS011;6053;51.382;6.768;2022-09-09T09:56:06;2.45;;;0.90;;
11986;SDS011;6053;51.382;6.768;2022-09-09T09:58:37;1.52;;;0.70;;
11986;SDS011;6053;51.382;6.768;2022-09-09T10:01:22;2.72;;;0.90;;
11986;SDS011;6053;51.382;6.768;2022-09-09T10:03:54;0.87;;;0.67;;
11986;SDS011;6053;51.382;6.768;2022-09-09T10:06:29;0.80;;;0.68;;
11986;SDS011;6053;51.382;6.768;2022-09-09T10:08:59;1.27;;;0.63;;
11986;SDS011;6053;51.382;6.768;2022-09-09T10:11:34;1.48;;;0.88;;
11986;SDS011;6053;51.382;6.768;2022-09-09T10:14:16;0.93;;;0.77;;
11986;SDS011;6053;51.382;6.768;2022-09-09T10:16:54;1.27;;;0.90;;
11986;SDS011;6053;51.382;6.768;2022-09-09T10:19:37;0.90;;;0.77;;
11986;SDS011;6053;51.382;6.768;2022-09-09T10:22:21;1.45;;;0.90;;
11986;SDS011;6053;51.382;6.768;2022-09-09T10:28:14;1.48;;;0.82;;
11986;SDS011;6053;51.382;6.768;2022-09-09T10:31:05;2.60;;;0.75;;
11986;SDS011;6053;51.382;6.768;2022-09-09T10:33:51;2.35;;;0.80;;
11986;SDS011;6053;51.382;6.768;2022-09-09T10:36:28;1.60;;;0.73;;
11986;SDS011;6053;51.382;6.768;2022-09-09T10:38:57;0.60;;;0.60;;
11986;SDS011;6053;51.382;6.768;2022-09-09T10:41:48;1.10;;;0.70;;
11986;SDS011;6053;51.382;6.768;2022-09-09T10:44:32;2.00;;;0.77;;
11986;SDS011;6053;51.382;6.768;2022-09-09T10:47:37;0.65;;;0.60;;
11986;SDS011;6053;51.382;6.768;2022-09-09T10:50:53;1.05;;;0.80;;
11986;SDS011;6053;51.382;6.768;2022-09-09T10:53:34;1.83;;;0.90;;
11986;SDS011;6053;51.382;6.768;2022-09-09T10:56:11;1.60;;;0.70;;
11986;SDS011;6053;51.382;6.768;2022-09-09T10:58:44;1.95;;;0.85;;
11986;SDS011;6053;51.382;6.768;2022-09-09T11:01:20;0.65;;;0.65;;
11986;SDS011;6053;51.382;6.768;2022-09-09T11:03:54;1.80;;;0.80;;
11986;SDS011;6053;51.382;6.768;2022-09-09T11:06:31;1.67;;;0.80;;
11986;SDS011;6053;51.382;6.768;2022-09-09T11:09:09;1.13;;;0.70;;
11986;SDS011;6053;51.382;6.768;2022-09-09T11:11:45;0.73;;;0.60;;
11986;SDS011;6053;51.382;6.768;2022-09-09T11:14:21;0.60;;;0.60;;
11986;SDS011;6053;51.382;6.768;2022-09-09T11:17:03;0.70;;;0.70;;
11986;SDS011;6053;51.382;6.768;2022-09-09T11:19:38;0.80;;;0.80;;
11986;SDS011;6053;51.382;6.768;2022-09-09T11:22:15;2.77;;;0.90;;
11986;SDS011;6053;51.382;6.768;2022-09-09T11:24:50;1.97;;;0.90;;
11986;SDS011;6053;51.382;6.768;2022-09-09T11:27:27;3.00;;;0.80;;
11986;SDS011;6053;51.382;6.768;2022-09-09T11:30:11;1.77;;;0.60;;
11986;SDS011;6053;51.382;6.768;2022-09-09T11:33:16;2.38;;;0.80;;
11986;SDS011;6053;51.382;6.768;2022-09-09T11:36:08;0.70;;;0.70;;
11986;SDS011;6053;51.382;6.768;2022-09-09T11:39:22;4.28;;;1.60;;
11986;SDS011;6053;51.382;6.768;2022-09-09T11:42:22;1.70;;;0.83;;
11986;SDS011;6053;51.382;6.768;2022-09-09T11:44:52;1.48;;;0.90;;
11986;SDS011;6053;51.382;6.768;2022-09-09T11:47:22;1.40;;;0.90;;
11986;SDS011;6053;51.382;6.768;2022-09-09T11:50:07;0.93;;;0.80;;
11986;SDS011;6053;51.382;6.768;2022-09-09T11:53:02;1.00;;;0.90;;
11986;SDS011;6053;51.382;6.768;2022-09-09T11:55:48;0.60;;;0.60;;
11986;SDS011;6053;51.382;6.768;2022-09-09T11:58:36;2.20;;;1.00;;
11986;SDS011;6053;51.382;6.768;2022-09-09T12:01:27;1.20;;;0.85;;
11986;SDS011;6053;51.382;6.768;2022-09-09T12:04:16;2.45;;;0.95;;
11986;SDS011;6053;51.382;6.768;2022-09-09T12:06:58;1.08;;;0.98;;
11986;SDS011;6053;51.382;6.768;2022-09-09T12:09:43;1.58;;;0.93;;
11986;SDS011;6053;51.382;6.768;2022-09-09T12:12:24;1.40;;;0.70;;
11986;SDS011;6053;51.382;6.768;2022-09-09T12:15:21;0.90;;;0.70;;
11986;SDS011;6053;51.382;6.768;2022-09-09T12:17:55;0.82;;;0.70;;
11986;SDS011;6053;51.382;6.768;2022-09-09T12:20:33;0.60;;;0.60;;
11986;SDS011;6053;51.382;6.768;2022-09-09T12:23:16;1.05;;;0.82;;
11986;SDS011;6053;51.382;6.768;2022-09-09T12:26:01;1.40;;;0.70;;
11986;SDS011;6053;51.382;6.768;2022-09-09T12:28:57;0.80;;;0.80;;
11986;SDS011;6053;51.382;6.768;2022-09-09T12:31:41;0.65;;;0.63;;
11986;SDS011;6053;51.382;6.768;2022-09-09T12:34:15;1.38;;;0.63;;
11986;SDS011;6053;51.382;6.768;2022-09-09T12:36:47;2.35;;;1.30;;
11986;SDS011;6053;51.382;6.768;2022-09-09T12:39:25;1.75;;;0.90;;
11986;SDS011;6053;51.382;6.768;2022-09-09T12:42:00;1.10;;;0.90;;
11986;SDS011;6053;51.382;6.768;2022-09-09T12:44:31;1.20;;;1.00;;
11986;SDS011;6053;51.382;6.768;2022-09-09T12:47:00;1.70;;;1.00;;
11986;SDS011;6053;51.382;6.768;2022-09-09T12:49:32;1.55;;;1.00;;
11986;SDS011;6053;51.382;6.768;2022-09-09T12:52:06;2.28;;;1.38;;
11986;SDS011;6053;51.382;6.768;2022-09-09T12:54:42;2.33;;;1.10;;
11986;SDS011;6053;51.382;6.768;2022-09-09T12:57:14;2.63;;;1.65;;
11986;SDS011;6053;51.382;6.768;2022-09-09T12:59:44;2.40;;;1.42;;
11986;SDS011;6053;51.382;6.768;2022-09-09T13:02:24;1.92;;;1.45;;
11986;SDS011;6053;51.382;6.768;2022-09-09T13:04:54;3.53;;;1.23;;
11986;SDS011;6053;51.382;6.768;2022-09-09T13:07:40;1.23;;;1.10;;
11986;SDS011;6053;51.382;6.768;2022-09-09T13:10:10;1.63;;;0.93;;
11986;SDS011;6053;51.382;6.768;2022-09-09T13:12:50;1.42;;;0.80;;
11986;SDS011;6053;51.382;6.768;2022-09-09T13:15:22;1.25;;;0.80;;
11986;SDS011;6053;51.382;6.768;2022-09-09T13:17:54;0.80;;;0.77;;
11986;SDS011;6053;51.382;6.768;2022-09-09T13:20:24;1.50;;;0.60;;
11986;SDS011;6053;51.382;6.768;2022-09-09T13:22:54;1.00;;;0.70;;
11986;SDS011;6053;51.382;6.768;2022-09-09T13:25:24;1.25;;;0.70;;
11986;SDS011;6053;51.382;6.768;2022-09-09T13:27:58;3.40;;;1.33;;
11986;SDS011;6053;51.382;6.768;2022-09-09T13:30:30;2.33;;;0.90;;
11986;SDS011;6053;51.382;6.768;2022-09-09T13:33:04;0.68;;;0.68;;
11986;SDS011;6053;51.382;6.768;2022-09-09T13:35:50;1.00;;;1.00;;
11986;SDS011;6053;51.382;6.768;2022-09-09T13:38:21;1.63;;;0.90;;
11986;SDS011;6053;51.382;6.768;2022-09-09T13:40:57;0.60;;;0.60;;
11986;SDS011;6053;51.382;6.768;2022-09-09T13:43:29;0.73;;;0.68;;
11986;SDS011;6053;51.382;6.768;2022-09-09T13:46:04;1.52;;;0.80;;
11986;SDS011;6053;51.382;6.768;2022-09-09T13:48:54;1.00;;;1.00;;
11986;SDS011;6053;51.382;6.768;2022-09-09T13:51:28;1.35;;;0.80;;
11986;SDS011;6053;51.382;6.768;2022-09-09T13:54:03;0.75;;;0.70;;
11986;SDS011;6053;51.382;6.768;2022-09-09T13:56:33;1.77;;;1.17;;
11986;SDS011;6053;51.382;6.768;2022-09-09T13:59:02;0.90;;;0.80;;
11986;SDS011;6053;51.382;6.768;2022-09-09T14:01:34;1.90;;;0.90;;
11986;SDS011;6053;51.382;6.768;2022-09-09T14:04:03;0.70;;;0.70;;
11986;SDS011;6053;51.382;6.768;2022-09-09T14:06:32;1.98;;;0.85;;
11986;SDS011;6053;51.382;6.768;2022-09-09T14:09:03;1.20;;;0.80;;
11986;SDS011;6053;51.382;6.768;2022-09-09T14:11:32;0.57;;;0.57;;
11986;SDS011;6053;51.382;6.768;2022-09-09T14:14:01;0.70;;;0.70;;
11986;SDS011;6053;51.382;6.768;2022-09-09T14:16:29;0.70;;;0.70;;
11986;SDS011;6053;51.382;6.768;2022-09-09T14:18:58;1.23;;;0.80;;
11986;SDS011;6053;51.382;6.768;2022-09-09T14:21:27;0.63;;;0.63;;
11986;SDS011;6053;51.382;6.768;2022-09-09T14:23:55;0.90;;;0.77;;
11986;SDS011;6053;51.382;6.768;2022-09-09T14:26:25;1.30;;;0.70;;
11986;SDS011;6053;51.382;6.768;2022-09-09T14:28:55;1.13;;;0.80;;
11986;SDS011;6053;51.382;6.768;2022-09-09T14:31:24;0.75;;;0.70;;
11986;SDS011;6053;51.382;6.768;2022-09-09T14:33:52;1.30;;;0.73;;
11986;SDS011;6053;51.382;6.768;2022-09-09T14:36:22;0.82;;;0.82;;
11986;SDS011;6053;51.382;6.768;2022-09-09T14:38:50;0.75;;;0.73;;
11986;SDS011;6053;51.382;6.768;2022-09-09T14:41:20;0.90;;;0.75;;
11986;SDS011;6053;51.382;6.768;2022-09-09T14:43:49;0.80;;;0.70;;
11986;SDS011;6053;51.382;6.768;2022-09-09T14:46:19;0.90;;;0.90;;
11986;SDS011;6053;51.382;6.768;2022-09-09T14:48:48;0.50;;;0.50;;
11986;SDS011;6053;51.382;6.768;2022-09-09T14:51:17;0.82;;;0.60;;
11986;SDS011;6053;51.382;6.768;2022-09-09T14:53:50;0.60;;;0.60;;
11986;SDS011;6053;51.382;6.768;2022-09-09T14:56:20;0.73;;;0.73;;
11986;SDS011;6053;51.382;6.768;2022-09-09T14:58:52;0.63;;;0.63;;
11986;SDS011;6053;51.382;6.768;2022-09-09T15:01:23;0.60;;;0.60;;
11986;SDS011;6053;51.382;6.768;2022-09-09T15:03:54;1.93;;;0.90;;
11986;SDS011;6053;51.382;6.768;2022-09-09T15:06:26;0.80;;;0.80;;
11986;SDS011;6053;51.382;6.768;2022-09-09T15:08:57;0.70;;;0.70;;
11986;SDS011;6053;51.382;6.768;2022-09-09T15:11:26;1.20;;;0.77;;
11986;SDS011;6053;51.382;6.768;2022-09-09T15:13:58;0.60;;;0.60;;
11986;SDS011;6053;51.382;6.768;2022-09-09T15:16:27;1.10;;;0.80;;
11986;SDS011;6053;51.382;6.768;2022-09-09T15:18:57;1.00;;;1.00;;
11986;SDS011;6053;51.382;6.768;2022-09-09T15:21:28;0.80;;;0.80;;
11986;SDS011;6053;51.382;6.768;2022-09-09T15:24:00;0.47;;;0.47;;
11986;SDS011;6053;51.382;6.768;2022-09-09T15:26:28;0.80;;;0.65;;
11986;SDS011;6053;51.382;6.768;2022-09-09T15:28:57;0.80;;;0.63;;
11986;SDS011;6053;51.382;6.768;2022-09-09T15:31:26;0.60;;;0.60;;
11986;SDS011;6053;51.382;6.768;2022-09-09T15:33:58;0.60;;;0.60;;
11986;SDS011;6053;51.382;6.768;2022-09-09T15:36:28;1.08;;;0.60;;
11986;SDS011;6053;51.382;6.768;2022-09-09T15:39:00;0.80;;;0.80;;
11986;SDS011;6053;51.382;6.768;2022-09-09T15:41:32;0.93;;;0.93;;
11986;SDS011;6053;51.382;6.768;2022-09-09T15:44:01;0.77;;;0.77;;
11986;SDS011;6053;51.382;6.768;2022-09-09T15:46:30;1.00;;;0.90;;